createdAt,value
2023-02-03T00:01:44.146Z,78.66
2023-02-03T00:06:40.774Z,78.53
2023-02-03T00:11:40.780Z,79.62
2023-02-03T00:16:37.443Z,78.35
2023-02-03T00:21:34.093Z,78.04
2023-02-03T00:26:33.316Z,77.88
2023-02-03T00:31:31.124Z,79.38
2023-02-03T00:36:27.939Z,79.37
2023-02-03T00:41:31.092Z,79.57
2023-02-03T00:46:27.630Z,79.66
2023-02-03T00:51:24.884Z,79.30
2023-02-03T00:56:24.383Z,78.62
2023-02-03T01:01:21.067Z,78.61
2023-02-03T01:06:20.216Z,78.58
2023-02-03T01:11:18.563Z,78.25
2023-02-03T01:16:16.411Z,77.96
2023-02-03T01:21:16.278Z,77.71
2023-02-03T01:26:14.709Z,77.37
2023-02-03T01:31:13.460Z,78.35
2023-02-03T01:36:10.319Z,78.02
2023-02-03T01:41:07.810Z,79.00
2023-02-03T01:46:07.074Z,78.41
2023-02-03T01:51:04.866Z,78.69
2023-02-03T01:56:04.337Z,78.34
2023-02-03T02:01:01.177Z,78.21
2023-02-03T02:06:00.502Z,78.65
2023-02-03T02:11:00.648Z,77.51
2023-02-03T02:16:00.177Z,77.69
2023-02-03T02:21:10.791Z,77.39
2023-02-03T02:26:31.249Z,77.63
2023-02-03T02:31:40.381Z,78.18
2023-02-03T02:36:43.209Z,77.58
2023-02-03T02:41:43.150Z,77.74
2023-02-03T02:46:42.986Z,76.83
2023-02-03T02:51:43.234Z,77.15
2023-02-03T02:56:40.765Z,76.63
2023-02-03T03:01:40.649Z,76.96
2023-02-03T03:06:42.632Z,76.97
2023-02-03T03:11:41.666Z,77.83
2023-02-03T03:16:43.177Z,78.40
2023-02-03T03:21:42.659Z,78.63
2023-02-03T03:26:42.331Z,79.86
2023-02-03T03:31:39.730Z,79.23
2023-02-03T03:36:40.609Z,79.20
2023-02-03T03:41:41.401Z,78.08
2023-02-03T03:46:41.623Z,78.75
2023-02-03T03:51:40.141Z,77.76
2023-02-03T03:56:39.509Z,78.06
2023-02-03T04:01:38.414Z,78.13
2023-02-03T04:06:36.186Z,77.96
2023-02-03T04:11:50.879Z,78.25
2023-02-03T04:16:48.199Z,78.67
2023-02-03T04:21:44.825Z,78.81
2023-02-03T04:26:41.398Z,79.51
2023-02-03T04:31:38.324Z,78.80
2023-02-03T04:36:35.868Z,78.91
2023-02-03T04:41:32.436Z,79.17
2023-02-03T04:46:28.983Z,78.74
2023-02-03T04:51:25.583Z,79.25
2023-02-03T04:56:22.811Z,78.46
2023-02-03T05:01:19.443Z,79.19
2023-02-03T05:06:21.965Z,78.92
2023-02-03T05:11:18.641Z,79.32
2023-02-03T05:16:15.909Z,79.03
2023-02-03T05:21:12.526Z,79.38
2023-02-03T05:26:09.114Z,79.69
2023-02-03T05:31:05.999Z,79.93
2023-02-03T05:36:03.750Z,79.95
2023-02-03T05:41:18.517Z,80.27
2023-02-03T05:46:15.178Z,79.66
2023-02-03T05:51:12.481Z,80.79
2023-02-03T05:56:09.113Z,81.19
2023-02-03T06:01:05.922Z,81.45
2023-02-03T06:06:02.937Z,81.12
2023-02-03T06:11:00.373Z,80.85
2023-02-03T06:15:57.163Z,80.90
2023-02-03T06:20:54.133Z,80.75
2023-02-03T06:25:52.452Z,80.61
2023-02-03T06:30:50.943Z,80.59
2023-02-03T06:35:47.870Z,80.47
2023-02-03T06:40:46.153Z,80.66
2023-02-03T06:45:45.363Z,80.70
2023-02-03T06:50:42.667Z,81.15
2023-02-03T06:55:40.776Z,81.33
2023-02-03T07:00:37.535Z,81.55
2023-02-03T07:05:35.515Z,81.13
2023-02-03T07:10:33.060Z,80.96
2023-02-03T07:15:29.843Z,82.41
2023-02-03T07:20:28.483Z,82.92
2023-02-03T07:25:25.770Z,81.52
2023-02-03T07:30:23.400Z,82.99
2023-02-03T07:35:20.015Z,83.73
2023-02-03T07:40:17.179Z,83.59
2023-02-03T07:45:15.154Z,82.34
2023-02-03T07:50:13.039Z,82.10
2023-02-03T07:55:15.217Z,81.91
2023-02-03T08:00:13.446Z,81.55
2023-02-03T08:05:10.518Z,81.59
2023-02-03T08:10:14.912Z,81.78
2023-02-03T08:15:11.712Z,82.00
2023-02-03T08:20:08.833Z,80.80
2023-02-03T08:25:06.864Z,80.68
2023-02-03T08:30:05.351Z,79.38
2023-02-03T08:35:02.129Z,77.65
2023-02-03T08:39:59.952Z,77.80
2023-02-03T08:44:56.914Z,77.60
2023-02-03T08:50:00.657Z,76.61
2023-02-03T08:55:00.369Z,76.08
2023-02-03T08:59:57.218Z,75.70
2023-02-03T09:04:55.179Z,76.48
2023-02-03T09:09:53.332Z,75.56
2023-02-03T09:14:50.478Z,75.19
2023-02-03T09:19:50.402Z,74.94
2023-02-03T09:24:51.197Z,74.97
2023-02-03T09:29:48.250Z,75.41
2023-02-03T09:34:50.707Z,75.72
2023-02-03T09:39:48.709Z,76.13
2023-02-03T09:44:48.971Z,75.63
2023-02-03T09:49:47.848Z,75.06
2023-02-03T09:54:50.265Z,75.68
2023-02-03T09:59:50.646Z,75.00
2023-02-03T10:04:52.986Z,73.98
2023-02-03T10:09:57.188Z,73.21
2023-02-03T10:15:00.883Z,72.77
2023-02-03T10:20:02.804Z,71.08
2023-02-03T10:25:03.464Z,71.27
2023-02-03T10:30:03.539Z,71.17
2023-02-03T10:35:17.023Z,71.40
2023-02-03T10:40:15.762Z,72.04
2023-02-03T10:45:13.331Z,70.79
2023-02-03T10:50:18.424Z,71.82
2023-02-03T10:55:31.730Z,72.47
2023-02-03T11:00:31.253Z,70.66
2023-02-03T11:05:28.152Z,67.99
2023-02-03T11:10:29.897Z,64.43
2023-02-03T11:15:27.290Z,63.58
2023-02-03T11:20:28.651Z,60.05
2023-02-03T11:25:29.229Z,60.31
2023-02-03T11:30:29.703Z,60.01
2023-02-03T11:35:28.482Z,57.13
2023-02-03T11:40:26.651Z,55.60
2023-02-03T11:45:24.961Z,55.86
2023-02-03T11:50:27.571Z,55.40
2023-02-03T11:55:34.265Z,56.42
2023-02-03T12:00:35.401Z,55.06
2023-02-03T12:05:50.177Z,54.28
2023-02-03T12:10:53.985Z,52.43
2023-02-03T12:15:58.393Z,54.54
2023-02-03T12:21:01.952Z,54.69
2023-02-03T12:26:14.788Z,53.93
2023-02-03T12:31:16.298Z,50.62
2023-02-03T12:36:15.463Z,52.82
2023-02-03T12:41:14.491Z,53.04
2023-02-03T12:46:15.203Z,51.93
2023-02-03T12:51:14.300Z,53.46
2023-02-03T12:56:16.707Z,54.21
2023-02-03T13:01:20.723Z,54.91
2023-02-03T13:06:21.004Z,53.10
2023-02-03T13:11:24.227Z,53.06
2023-02-03T13:16:26.847Z,54.39
2023-02-03T13:21:23.661Z,55.41
2023-02-03T13:26:35.967Z,56.69
2023-02-03T13:31:40.996Z,57.88
2023-02-03T13:36:55.697Z,58.02
2023-02-03T13:41:55.046Z,57.77
2023-02-03T13:46:52.412Z,58.83
2023-02-03T13:51:49.358Z,59.59
2023-02-03T13:56:54.692Z,60.52
2023-02-03T14:01:51.389Z,59.61
2023-02-03T14:07:02.841Z,52.24
2023-02-03T14:12:19.735Z,55.79
2023-02-03T14:17:35.335Z,59.53
2023-02-03T14:22:32.146Z,60.70
2023-02-03T14:27:30.906Z,61.25
2023-02-03T14:32:47.781Z,62.06
2023-02-03T14:37:53.022Z,63.26
2023-02-03T14:43:10.137Z,63.19
2023-02-03T14:48:15.891Z,63.57
2023-02-03T14:53:20.849Z,65.03
2023-02-03T14:58:23.213Z,65.83
2023-02-03T15:03:25.627Z,65.36
2023-02-03T15:08:41.321Z,64.98
2023-02-03T15:13:38.619Z,64.93
2023-02-03T15:18:47.409Z,65.15
2023-02-03T15:23:48.693Z,65.37
2023-02-03T15:28:53.989Z,65.14
2023-02-03T15:33:52.199Z,66.48
2023-02-03T15:38:50.416Z,66.44
2023-02-03T15:43:49.342Z,66.33
2023-02-03T15:48:49.733Z,66.88
2023-02-03T15:53:49.792Z,66.34
2023-02-03T15:58:46.619Z,66.50
2023-02-03T16:03:44.224Z,66.82
2023-02-03T16:08:45.751Z,67.46
2023-02-03T16:13:45.835Z,67.56
2023-02-03T16:18:50.461Z,65.77
2023-02-03T16:23:49.844Z,65.79
2023-02-03T16:29:14.336Z,64.63
2023-02-03T16:34:32.493Z,65.38
2023-02-03T16:39:48.511Z,64.60
2023-02-03T16:45:03.339Z,65.80
2023-02-03T16:50:26.449Z,63.51
2023-02-03T16:55:33.932Z,63.88
2023-02-03T17:00:30.541Z,62.26
2023-02-03T17:05:27.375Z,62.00
2023-02-03T17:10:24.079Z,61.76
2023-02-03T17:15:21.391Z,60.80
2023-02-03T17:20:18.110Z,61.18
2023-02-03T17:25:14.836Z,61.01
2023-02-03T17:30:12.355Z,59.95
2023-02-03T17:35:09.670Z,60.46
2023-02-03T17:55:51.936Z,59.89
2023-02-03T18:00:48.569Z,59.66
2023-02-03T18:05:50.524Z,59.13
2023-02-03T18:10:47.214Z,59.13
2023-02-03T18:15:43.874Z,58.90
2023-02-03T18:20:40.453Z,58.22
2023-02-03T18:25:37.800Z,57.78
2023-02-03T18:30:35.879Z,58.25
2023-02-03T18:35:32.850Z,57.22
2023-02-03T18:40:29.697Z,57.08
2023-02-03T18:45:46.042Z,57.43
2023-02-03T18:50:50.445Z,56.99
2023-02-03T18:55:47.073Z,55.70
2023-02-03T19:00:44.670Z,55.51
2023-02-03T19:05:41.943Z,55.10
2023-02-03T19:10:38.753Z,54.75
2023-02-03T19:15:51.754Z,54.51
2023-02-03T19:20:49.167Z,53.94
2023-02-03T19:25:50.079Z,53.64
2023-02-03T19:30:46.864Z,54.46
2023-02-03T19:35:46.367Z,54.51
2023-02-03T19:40:44.651Z,54.21
2023-02-03T19:45:41.760Z,54.33
2023-02-03T19:50:40.211Z,54.85
2023-02-03T19:55:36.824Z,55.00
2023-02-03T20:00:34.792Z,55.69
2023-02-03T20:05:31.618Z,55.65
2023-02-03T20:10:32.051Z,55.77
2023-02-03T20:15:28.782Z,55.88
2023-02-03T20:20:26.095Z,55.45
2023-02-03T20:25:22.798Z,56.72
2023-02-03T20:30:19.675Z,56.37
2023-02-03T20:35:18.924Z,56.05
2023-02-03T20:40:18.116Z,56.52
2023-02-03T20:45:15.222Z,56.69
2023-02-03T20:50:14.213Z,56.47
2023-02-03T20:55:12.894Z,56.63
2023-02-03T21:00:15.320Z,57.95
2023-02-03T21:05:22.850Z,58.30
2023-02-03T21:10:20.991Z,58.65
2023-02-03T21:15:19.581Z,58.47
2023-02-03T21:20:23.817Z,58.40
2023-02-03T21:25:26.183Z,58.70
2023-02-03T21:30:27.847Z,58.25
2023-02-03T21:35:25.793Z,58.15
2023-02-03T21:40:26.276Z,57.62
2023-02-03T21:45:28.281Z,57.93
2023-02-03T21:50:26.424Z,58.22
2023-02-03T21:55:23.072Z,58.08
2023-02-03T22:00:39.183Z,58.01
2023-02-03T22:05:35.742Z,57.88
2023-02-03T22:10:32.510Z,58.27
2023-02-03T22:15:29.363Z,58.65
2023-02-03T22:20:26.684Z,58.41
2023-02-03T22:25:23.228Z,58.37
2023-02-03T22:30:19.886Z,57.63
2023-02-03T22:35:16.652Z,57.96
2023-02-03T22:40:19.270Z,56.84
2023-02-03T22:45:16.218Z,56.88
2023-02-03T22:50:13.238Z,56.83
2023-02-03T22:55:12.009Z,56.36
2023-02-03T23:00:11.043Z,56.65
2023-02-03T23:05:08.762Z,57.51
2023-02-03T23:10:06.691Z,57.66
2023-02-03T23:15:04.027Z,57.33
2023-02-03T23:20:01.376Z,56.86
2023-02-03T23:24:59.652Z,56.61
2023-02-03T23:29:56.340Z,58.74
2023-02-03T23:35:11.068Z,62.24
2023-02-03T23:40:09.407Z,64.25
2023-02-03T23:45:07.714Z,66.88
2023-02-03T23:50:04.553Z,68.47
2023-02-03T23:55:02.237Z,71.81
2023-02-03T23:59:59.608Z,75.36
